sensor_id;sensor_type;location;lat;lon;timestamp;P1;durP1;ratioP1;P2;durP2;ratioP2
14907;SDS011;7545;52.092;7.006;2023-04-24T00:00:00;1.40;;;1.30;;
14907;SDS011;7545;52.092;7.006;2023-04-24T00:02:28;1.95;;;1.40;;
14907;SDS011;7545;52.092;7.006;2023-04-24T00:04:54;1.45;;;1.30;;
14907;SDS011;7545;52.092;7.006;2023-04-24T00:07:19;1.52;;;1.30;;
14907;SDS011;7545;52.092;7.006;2023-04-24T00:09:45;3.17;;;1.65;;
14907;SDS011;7545;52.092;7.006;2023-04-24T00:12:11;1.38;;;1.17;;
14907;SDS011;7545;52.092;7.006;2023-04-24T00:14:37;3.35;;;1.80;;
14907;SDS011;7545;52.092;7.006;2023-04-24T00:17:02;1.80;;;1.70;;
14907;SDS011;7545;52.092;7.006;2023-04-24T00:19:28;1.65;;;1.55;;
14907;SDS011;7545;52.092;7.006;2023-04-24T00:21:54;2.00;;;1.83;;
14907;SDS011;7545;52.092;7.006;2023-04-24T00:24:20;2.10;;;1.90;;
14907;SDS011;7545;52.092;7.006;2023-04-24T00:26:46;1.90;;;1.80;;
14907;SDS011;7545;52.092;7.006;2023-04-24T00:29:12;1.67;;;1.58;;
14907;SDS011;7545;52.092;7.006;2023-04-24T00:31:37;2.38;;;2.00;;
14907;SDS011;7545;52.092;7.006;2023-04-24T00:34:03;2.58;;;2.20;;
14907;SDS011;7545;52.092;7.006;2023-04-24T00:36:29;2.22;;;2.03;;
14907;SDS011;7545;52.092;7.006;2023-04-24T00:38:56;2.13;;;1.92;;
14907;SDS011;7545;52.092;7.006;2023-04-24T00:41:22;1.98;;;1.80;;
14907;SDS011;7545;52.092;7.006;2023-04-24T00:43:49;2.65;;;2.25;;
14907;SDS011;7545;52.092;7.006;2023-04-24T00:46:15;2.33;;;2.13;;
14907;SDS011;7545;52.092;7.006;2023-04-24T00:48:41;3.13;;;2.30;;
14907;SDS011;7545;52.092;7.006;2023-04-24T00:51:08;2.72;;;2.15;;
14907;SDS011;7545;52.092;7.006;2023-04-24T00:53:33;5.47;;;2.25;;
14907;SDS011;7545;52.092;7.006;2023-04-24T00:55:59;2.65;;;1.98;;
14907;SDS011;7545;52.092;7.006;2023-04-24T00:58:25;2.22;;;1.73;;
14907;SDS011;7545;52.092;7.006;2023-04-24T01:00:51;1.98;;;1.58;;
14907;SDS011;7545;52.092;7.006;2023-04-24T01:03:22;1.90;;;1.80;;
14907;SDS011;7545;52.092;7.006;2023-04-24T01:05:51;2.35;;;1.92;;
14907;SDS011;7545;52.092;7.006;2023-04-24T01:08:19;1.92;;;1.73;;
14907;SDS011;7545;52.092;7.006;2023-04-24T01:10:45;1.55;;;1.40;;
14907;SDS011;7545;52.092;7.006;2023-04-24T01:13:12;1.55;;;1.40;;
14907;SDS011;7545;52.092;7.006;2023-04-24T01:15:38;1.38;;;1.27;;
14907;SDS011;7545;52.092;7.006;2023-04-24T01:18:04;1.48;;;1.05;;
14907;SDS011;7545;52.092;7.006;2023-04-24T01:20:30;1.13;;;1.02;;
14907;SDS011;7545;52.092;7.006;2023-04-24T01:22:56;0.98;;;0.95;;
14907;SDS011;7545;52.092;7.006;2023-04-24T01:25:23;1.90;;;0.93;;
14907;SDS011;7545;52.092;7.006;2023-04-24T01:27:49;0.90;;;0.90;;
14907;SDS011;7545;52.092;7.006;2023-04-24T01:30:16;1.60;;;1.45;;
14907;SDS011;7545;52.092;7.006;2023-04-24T01:32:42;1.48;;;1.38;;
14907;SDS011;7545;52.092;7.006;2023-04-24T01:35:09;1.52;;;1.42;;
14907;SDS011;7545;52.092;7.006;2023-04-24T01:37:35;3.53;;;2.25;;
14907;SDS011;7545;52.092;7.006;2023-04-24T01:40:07;2.38;;;2.08;;
14907;SDS011;7545;52.092;7.006;2023-04-24T01:42:34;2.53;;;2.28;;
14907;SDS011;7545;52.092;7.006;2023-04-24T01:44:59;3.53;;;2.75;;
14907;SDS011;7545;52.092;7.006;2023-04-24T01:47:28;3.58;;;2.83;;
14907;SDS011;7545;52.092;7.006;2023-04-24T01:49:55;3.67;;;3.03;;
14907;SDS011;7545;52.092;7.006;2023-04-24T01:52:21;3.05;;;2.75;;
14907;SDS011;7545;52.092;7.006;2023-04-24T01:54:47;4.60;;;2.85;;
14907;SDS011;7545;52.092;7.006;2023-04-24T01:57:13;3.78;;;3.13;;
14907;SDS011;7545;52.092;7.006;2023-04-24T01:59:41;3.85;;;3.00;;
14907;SDS011;7545;52.092;7.006;2023-04-24T02:02:06;6.60;;;3.13;;
14907;SDS011;7545;52.092;7.006;2023-04-24T02:04:32;5.82;;;2.83;;
14907;SDS011;7545;52.092;7.006;2023-04-24T02:06:58;3.60;;;2.97;;
14907;SDS011;7545;52.092;7.006;2023-04-24T02:09:23;5.10;;;2.75;;
14907;SDS011;7545;52.092;7.006;2023-04-24T02:11:49;5.05;;;3.00;;
14907;SDS011;7545;52.092;7.006;2023-04-24T02:14:15;3.67;;;3.38;;
14907;SDS011;7545;52.092;7.006;2023-04-24T02:16:40;4.32;;;3.63;;
14907;SDS011;7545;52.092;7.006;2023-04-24T02:19:06;5.10;;;3.88;;
14907;SDS011;7545;52.092;7.006;2023-04-24T02:21:32;4.82;;;3.33;;
14907;SDS011;7545;52.092;7.006;2023-04-24T02:23:58;5.05;;;3.70;;
14907;SDS011;7545;52.092;7.006;2023-04-24T02:26:23;5.68;;;3.88;;
14907;SDS011;7545;52.092;7.006;2023-04-24T02:28:52;4.80;;;3.53;;
14907;SDS011;7545;52.092;7.006;2023-04-24T02:31:18;5.22;;;3.78;;
14907;SDS011;7545;52.092;7.006;2023-04-24T02:33:52;3.72;;;3.22;;
14907;SDS011;7545;52.092;7.006;2023-04-24T02:36:18;5.30;;;3.25;;
14907;SDS011;7545;52.092;7.006;2023-04-24T02:38:43;7.72;;;4.55;;
14907;SDS011;7545;52.092;7.006;2023-04-24T02:41:09;3.97;;;3.35;;
14907;SDS011;7545;52.092;7.006;2023-04-24T02:43:35;4.00;;;3.50;;
14907;SDS011;7545;52.092;7.006;2023-04-24T02:46:00;4.35;;;3.92;;
14907;SDS011;7545;52.092;7.006;2023-04-24T02:48:26;6.32;;;4.40;;
14907;SDS011;7545;52.092;7.006;2023-04-24T02:50:52;6.00;;;4.47;;
14907;SDS011;7545;52.092;7.006;2023-04-24T02:53:18;5.32;;;4.10;;
14907;SDS011;7545;52.092;7.006;2023-04-24T02:55:43;5.70;;;4.95;;
14907;SDS011;7545;52.092;7.006;2023-04-24T02:58:09;8.63;;;4.40;;
14907;SDS011;7545;52.092;7.006;2023-04-24T03:00:37;7.03;;;5.05;;
14907;SDS011;7545;52.092;7.006;2023-04-24T03:03:03;6.20;;;4.80;;
14907;SDS011;7545;52.092;7.006;2023-04-24T03:05:29;6.05;;;4.57;;
14907;SDS011;7545;52.092;7.006;2023-04-24T03:07:55;5.90;;;4.78;;
14907;SDS011;7545;52.092;7.006;2023-04-24T03:10:21;8.38;;;4.55;;
14907;SDS011;7545;52.092;7.006;2023-04-24T03:12:50;6.45;;;4.82;;
14907;SDS011;7545;52.092;7.006;2023-04-24T03:15:15;6.40;;;5.03;;
14907;SDS011;7545;52.092;7.006;2023-04-24T03:17:41;8.05;;;5.53;;
14907;SDS011;7545;52.092;7.006;2023-04-24T03:20:08;7.07;;;5.45;;
14907;SDS011;7545;52.092;7.006;2023-04-24T03:22:34;8.93;;;5.18;;
14907;SDS011;7545;52.092;7.006;2023-04-24T03:25:00;7.82;;;5.13;;
14907;SDS011;7545;52.092;7.006;2023-04-24T03:27:26;9.15;;;5.45;;
14907;SDS011;7545;52.092;7.006;2023-04-24T03:29:52;8.68;;;5.55;;
14907;SDS011;7545;52.092;7.006;2023-04-24T03:32:20;7.78;;;5.88;;
14907;SDS011;7545;52.092;7.006;2023-04-24T03:34:50;14.25;;;5.90;;
14907;SDS011;7545;52.092;7.006;2023-04-24T03:37:15;8.32;;;5.80;;
14907;SDS011;7545;52.092;7.006;2023-04-24T03:39:42;7.88;;;5.75;;
14907;SDS011;7545;52.092;7.006;2023-04-24T03:42:08;9.35;;;6.13;;
14907;SDS011;7545;52.092;7.006;2023-04-24T03:44:34;9.95;;;6.00;;
14907;SDS011;7545;52.092;7.006;2023-04-24T03:47:00;6.78;;;6.00;;
14907;SDS011;7545;52.092;7.006;2023-04-24T03:49:26;8.15;;;6.28;;
14907;SDS011;7545;52.092;7.006;2023-04-24T03:51:51;10.15;;;6.70;;
14907;SDS011;7545;52.092;7.006;2023-04-24T03:54:18;9.75;;;5.50;;
14907;SDS011;7545;52.092;7.006;2023-04-24T03:56:46;6.97;;;6.28;;
14907;SDS011;7545;52.092;7.006;2023-04-24T03:59:12;9.95;;;6.78;;
14907;SDS011;7545;52.092;7.006;2023-04-24T04:01:38;6.90;;;6.18;;
14907;SDS011;7545;52.092;7.006;2023-04-24T04:04:04;8.88;;;6.75;;
14907;SDS011;7545;52.092;7.006;2023-04-24T04:06:30;15.32;;;7.30;;
14907;SDS011;7545;52.092;7.006;2023-04-24T04:08:57;8.25;;;6.20;;
14907;SDS011;7545;52.092;7.006;2023-04-24T04:11:23;10.43;;;6.32;;
14907;SDS011;7545;52.092;7.006;2023-04-24T04:13:49;11.20;;;7.05;;
14907;SDS011;7545;52.092;7.006;2023-04-24T04:16:15;10.55;;;6.25;;
14907;SDS011;7545;52.092;7.006;2023-04-24T04:18:44;9.90;;;7.15;;
14907;SDS011;7545;52.092;7.006;2023-04-24T04:21:10;9.32;;;6.70;;
14907;SDS011;7545;52.092;7.006;2023-04-24T04:23:36;9.40;;;7.43;;
14907;SDS011;7545;52.092;7.006;2023-04-24T04:26:02;9.93;;;6.57;;
14907;SDS011;7545;52.092;7.006;2023-04-24T04:28:28;9.73;;;6.57;;
14907;SDS011;7545;52.092;7.006;2023-04-24T04:30:55;9.02;;;6.95;;
14907;SDS011;7545;52.092;7.006;2023-04-24T04:33:22;8.48;;;6.68;;
14907;SDS011;7545;52.092;7.006;2023-04-24T04:35:48;8.02;;;6.90;;
14907;SDS011;7545;52.092;7.006;2023-04-24T04:38:15;10.95;;;6.65;;
14907;SDS011;7545;52.092;7.006;2023-04-24T04:40:42;9.45;;;7.25;;
14907;SDS011;7545;52.092;7.006;2023-04-24T04:43:08;9.77;;;6.97;;
14907;SDS011;7545;52.092;7.006;2023-04-24T04:45:33;9.98;;;7.68;;
14907;SDS011;7545;52.092;7.006;2023-04-24T04:47:59;9.77;;;7.35;;
14907;SDS011;7545;52.092;7.006;2023-04-24T04:50:27;10.52;;;7.47;;
14907;SDS011;7545;52.092;7.006;2023-04-24T04:52:52;12.98;;;7.30;;
14907;SDS011;7545;52.092;7.006;2023-04-24T04:55:18;10.52;;;7.80;;
14907;SDS011;7545;52.092;7.006;2023-04-24T04:57:47;12.15;;;7.60;;
14907;SDS011;7545;52.092;7.006;2023-04-24T05:00:12;10.35;;;8.20;;
14907;SDS011;7545;52.092;7.006;2023-04-24T05:02:39;8.95;;;7.10;;
14907;SDS011;7545;52.092;7.006;2023-04-24T05:05:05;11.60;;;7.18;;
14907;SDS011;7545;52.092;7.006;2023-04-24T05:07:31;11.27;;;8.00;;
14907;SDS011;7545;52.092;7.006;2023-04-24T05:09:57;10.48;;;7.32;;
14907;SDS011;7545;52.092;7.006;2023-04-24T05:12:22;9.68;;;7.60;;
14907;SDS011;7545;52.092;7.006;2023-04-24T05:14:48;10.77;;;8.27;;
14907;SDS011;7545;52.092;7.006;2023-04-24T05:17:14;10.30;;;7.68;;
14907;SDS011;7545;52.092;7.006;2023-04-24T05:19:40;10.88;;;7.32;;
14907;SDS011;7545;52.092;7.006;2023-04-24T05:22:05;12.10;;;8.52;;
14907;SDS011;7545;52.092;7.006;2023-04-24T05:24:35;11.90;;;7.68;;
14907;SDS011;7545;52.092;7.006;2023-04-24T05:27:01;15.15;;;9.23;;
14907;SDS011;7545;52.092;7.006;2023-04-24T05:29:29;9.77;;;7.40;;
14907;SDS011;7545;52.092;7.006;2023-04-24T05:31:58;11.00;;;7.80;;
14907;SDS011;7545;52.092;7.006;2023-04-24T05:34:25;10.65;;;7.32;;
14907;SDS011;7545;52.092;7.006;2023-04-24T05:36:50;13.50;;;8.43;;
14907;SDS011;7545;52.092;7.006;2023-04-24T05:39:16;11.20;;;8.20;;
14907;SDS011;7545;52.092;7.006;2023-04-24T05:41:42;9.27;;;7.60;;
14907;SDS011;7545;52.092;7.006;2023-04-24T05:44:08;11.38;;;7.47;;
14907;SDS011;7545;52.092;7.006;2023-04-24T05:46:34;10.68;;;7.75;;
14907;SDS011;7545;52.092;7.006;2023-04-24T05:49:00;8.90;;;7.15;;
14907;SDS011;7545;52.092;7.006;2023-04-24T05:51:25;13.75;;;8.40;;
14907;SDS011;7545;52.092;7.006;2023-04-24T05:53:51;10.43;;;6.80;;
14907;SDS011;7545;52.092;7.006;2023-04-24T05:56:17;11.00;;;7.28;;
14907;SDS011;7545;52.092;7.006;2023-04-24T05:58:43;10.15;;;7.63;;
14907;SDS011;7545;52.092;7.006;2023-04-24T06:01:09;10.98;;;6.78;;
14907;SDS011;7545;52.092;7.006;2023-04-24T06:03:34;15.30;;;8.10;;
14907;SDS011;7545;52.092;7.006;2023-04-24T06:06:00;13.32;;;7.82;;
14907;SDS011;7545;52.092;7.006;2023-04-24T06:08:25;11.50;;;7.28;;
14907;SDS011;7545;52.092;7.006;2023-04-24T06:10:51;14.57;;;8.27;;
14907;SDS011;7545;52.092;7.006;2023-04-24T06:13:17;9.57;;;7.75;;
14907;SDS011;7545;52.092;7.006;2023-04-24T06:15:43;12.35;;;6.95;;
14907;SDS011;7545;52.092;7.006;2023-04-24T06:18:09;9.48;;;7.07;;
14907;SDS011;7545;52.092;7.006;2023-04-24T06:20:37;8.88;;;7.30;;
14907;SDS011;7545;52.092;7.006;2023-04-24T06:23:03;10.10;;;6.97;;
14907;SDS011;7545;52.092;7.006;2023-04-24T06:25:29;10.02;;;7.03;;
14907;SDS011;7545;52.092;7.006;2023-04-24T06:27:55;7.47;;;6.45;;
14907;SDS011;7545;52.092;7.006;2023-04-24T06:30:21;9.02;;;7.38;;
14907;SDS011;7545;52.092;7.006;2023-04-24T06:32:47;7.65;;;6.72;;
14907;SDS011;7545;52.092;7.006;2023-04-24T06:35:12;9.07;;;6.85;;
14907;SDS011;7545;52.092;7.006;2023-04-24T06:37:39;11.50;;;7.30;;
14907;SDS011;7545;52.092;7.006;2023-04-24T06:40:06;9.15;;;5.60;;
14907;SDS011;7545;52.092;7.006;2023-04-24T06:42:32;10.43;;;6.53;;
14907;SDS011;7545;52.092;7.006;2023-04-24T06:44:57;9.70;;;5.97;;
14907;SDS011;7545;52.092;7.006;2023-04-24T06:47:23;7.18;;;5.80;;
14907;SDS011;7545;52.092;7.006;2023-04-24T06:49:49;9.32;;;5.38;;
14907;SDS011;7545;52.092;7.006;2023-04-24T06:52:16;10.63;;;6.63;;
14907;SDS011;7545;52.092;7.006;2023-04-24T06:54:41;9.13;;;5.18;;
14907;SDS011;7545;52.092;7.006;2023-04-24T06:57:07;6.05;;;4.97;;
14907;SDS011;7545;52.092;7.006;2023-04-24T06:59:33;6.93;;;4.63;;
14907;SDS011;7545;52.092;7.006;2023-04-24T07:01:59;7.63;;;4.82;;
14907;SDS011;7545;52.092;7.006;2023-04-24T07:04:25;8.02;;;5.53;;
14907;SDS011;7545;52.092;7.006;2023-04-24T07:06:50;6.75;;;5.40;;
14907;SDS011;7545;52.092;7.006;2023-04-24T07:09:17;5.25;;;4.10;;
14907;SDS011;7545;52.092;7.006;2023-04-24T07:11:43;6.00;;;4.30;;
14907;SDS011;7545;52.092;7.006;2023-04-24T07:14:10;5.53;;;3.95;;
14907;SDS011;7545;52.092;7.006;2023-04-24T07:16:35;5.80;;;4.32;;
14907;SDS011;7545;52.092;7.006;2023-04-24T07:19:01;5.63;;;4.28;;
14907;SDS011;7545;52.092;7.006;2023-04-24T07:21:27;4.38;;;3.97;;
14907;SDS011;7545;52.092;7.006;2023-04-24T07:23:52;5.60;;;3.97;;
14907;SDS011;7545;52.092;7.006;2023-04-24T07:26:19;5.85;;;4.75;;
14907;SDS011;7545;52.092;7.006;2023-04-24T07:28:45;5.63;;;4.30;;
14907;SDS011;7545;52.092;7.006;2023-04-24T07:31:11;9.15;;;3.40;;
14907;SDS011;7545;52.092;7.006;2023-04-24T07:33:37;4.05;;;3.65;;
14907;SDS011;7545;52.092;7.006;2023-04-24T07:36:03;7.05;;;4.85;;
14907;SDS011;7545;52.092;7.006;2023-04-24T07:38:29;3.53;;;3.17;;
14907;SDS011;7545;52.092;7.006;2023-04-24T07:40:56;4.32;;;3.80;;
14907;SDS011;7545;52.092;7.006;2023-04-24T07:43:21;5.00;;;3.50;;
14907;SDS011;7545;52.092;7.006;2023-04-24T07:45:48;4.15;;;3.67;;
14907;SDS011;7545;52.092;7.006;2023-04-24T07:48:17;3.00;;;2.58;;
14907;SDS011;7545;52.092;7.006;2023-04-24T07:50:46;4.50;;;3.67;;
14907;SDS011;7545;52.092;7.006;2023-04-24T07:53:11;4.07;;;3.25;;
14907;SDS011;7545;52.092;7.006;2023-04-24T07:55:37;3.58;;;3.28;;
14907;SDS011;7545;52.092;7.006;2023-04-24T07:58:02;3.55;;;3.25;;
14907;SDS011;7545;52.092;7.006;2023-04-24T08:00:28;3.83;;;2.95;;
14907;SDS011;7545;52.092;7.006;2023-04-24T08:02:54;2.92;;;2.65;;
14907;SDS011;7545;52.092;7.006;2023-04-24T08:05:20;3.60;;;3.30;;
14907;SDS011;7545;52.092;7.006;2023-04-24T08:07:45;4.30;;;2.40;;
14907;SDS011;7545;52.092;7.006;2023-04-24T08:10:13;3.40;;;2.53;;
14907;SDS011;7545;52.092;7.006;2023-04-24T08:12:40;3.53;;;2.92;;
14907;SDS011;7545;52.092;7.006;2023-04-24T08:15:06;4.05;;;2.67;;
14907;SDS011;7545;52.092;7.006;2023-04-24T08:17:33;4.15;;;3.20;;
14907;SDS011;7545;52.092;7.006;2023-04-24T08:20:00;3.67;;;2.85;;
14907;SDS011;7545;52.092;7.006;2023-04-24T08:22:29;4.82;;;3.30;;
14907;SDS011;7545;52.092;7.006;2023-04-24T08:24:54;3.47;;;2.92;;
14907;SDS011;7545;52.092;7.006;2023-04-24T08:27:21;3.20;;;2.70;;
14907;SDS011;7545;52.092;7.006;2023-04-24T08:29:49;4.55;;;3.55;;
14907;SDS011;7545;52.092;7.006;2023-04-24T08:32:15;5.30;;;3.72;;
14907;SDS011;7545;52.092;7.006;2023-04-24T08:34:42;4.97;;;3.90;;
14907;SDS011;7545;52.092;7.006;2023-04-24T08:37:07;5.93;;;4.22;;
14907;SDS011;7545;52.092;7.006;2023-04-24T08:39:33;3.83;;;3.53;;
14907;SDS011;7545;52.092;7.006;2023-04-24T08:41:59;5.80;;;3.33;;
14907;SDS011;7545;52.092;7.006;2023-04-24T08:44:30;4.28;;;3.50;;
14907;SDS011;7545;52.092;7.006;2023-04-24T08:46:57;4.25;;;3.38;;
14907;SDS011;7545;52.092;7.006;2023-04-24T08:49:22;4.00;;;3.58;;
14907;SDS011;7545;52.092;7.006;2023-04-24T08:51:50;4.80;;;3.22;;
14907;SDS011;7545;52.092;7.006;2023-04-24T08:54:18;3.90;;;3.53;;
14907;SDS011;7545;52.092;7.006;2023-04-24T08:56:44;4.97;;;3.42;;
14907;SDS011;7545;52.092;7.006;2023-04-24T08:59:12;4.22;;;3.30;;
14907;SDS011;7545;52.092;7.006;2023-04-24T09:01:39;3.65;;;3.20;;
14907;SDS011;7545;52.092;7.006;2023-04-24T09:04:05;3.42;;;2.72;;
14907;SDS011;7545;52.092;7.006;2023-04-24T09:06:34;4.40;;;3.70;;
14907;SDS011;7545;52.092;7.006;2023-04-24T09:09:00;4.07;;;3.25;;
14907;SDS011;7545;52.092;7.006;2023-04-24T09:11:29;3.88;;;3.08;;
14907;SDS011;7545;52.092;7.006;2023-04-24T09:13:56;3.22;;;2.92;;
14907;SDS011;7545;52.092;7.006;2023-04-24T09:16:22;3.50;;;3.20;;
14907;SDS011;7545;52.092;7.006;2023-04-24T09:18:50;3.88;;;3.33;;
14907;SDS011;7545;52.092;7.006;2023-04-24T09:21:16;3.47;;;3.15;;
14907;SDS011;7545;52.092;7.006;2023-04-24T09:23:42;3.92;;;3.47;;
14907;SDS011;7545;52.092;7.006;2023-04-24T09:26:08;3.13;;;2.70;;
14907;SDS011;7545;52.092;7.006;2023-04-24T09:28:36;3.03;;;2.83;;
14907;SDS011;7545;52.092;7.006;2023-04-24T09:31:13;3.25;;;2.58;;
14907;SDS011;7545;52.092;7.006;2023-04-24T09:33:55;3.35;;;2.72;;
14907;SDS011;7545;52.092;7.006;2023-04-24T09:36:28;3.58;;;2.72;;
14907;SDS011;7545;52.092;7.006;2023-04-24T09:39:04;2.72;;;2.25;;
14907;SDS011;7545;52.092;7.006;2023-04-24T09:41:33;2.40;;;2.20;;
14907;SDS011;7545;52.092;7.006;2023-04-24T09:44:10;2.28;;;1.73;;
14907;SDS011;7545;52.092;7.006;2023-04-24T09:46:41;2.35;;;1.80;;
14907;SDS011;7545;52.092;7.006;2023-04-24T09:49:08;3.92;;;2.35;;
14907;SDS011;7545;52.092;7.006;2023-04-24T09:51:36;4.57;;;3.92;;
14907;SDS011;7545;52.092;7.006;2023-04-24T09:54:15;4.28;;;3.13;;
14907;SDS011;7545;52.092;7.006;2023-04-24T09:56:44;4.00;;;3.10;;
14907;SDS011;7545;52.092;7.006;2023-04-24T09:59:10;6.10;;;3.95;;
14907;SDS011;7545;52.092;7.006;2023-04-24T10:01:37;5.80;;;3.75;;
14907;SDS011;7545;52.092;7.006;2023-04-24T10:04:04;10.25;;;4.22;;
14907;SDS011;7545;52.092;7.006;2023-04-24T10:06:33;4.00;;;3.53;;
14907;SDS011;7545;52.092;7.006;2023-04-24T10:08:59;4.13;;;3.63;;
14907;SDS011;7545;52.092;7.006;2023-04-24T10:11:29;6.60;;;3.50;;
14907;SDS011;7545;52.092;7.006;2023-04-24T10:13:55;6.88;;;5.18;;
14907;SDS011;7545;52.092;7.006;2023-04-24T10:16:22;6.63;;;3.67;;
14907;SDS011;7545;52.092;7.006;2023-04-24T10:18:49;8.07;;;4.35;;
14907;SDS011;7545;52.092;7.006;2023-04-24T10:21:15;4.50;;;3.05;;
14907;SDS011;7545;52.092;7.006;2023-04-24T10:23:42;7.70;;;4.30;;
14907;SDS011;7545;52.092;7.006;2023-04-24T10:26:12;5.55;;;4.22;;
14907;SDS011;7545;52.092;7.006;2023-04-24T10:28:44;5.63;;;3.58;;
14907;SDS011;7545;52.092;7.006;2023-04-24T10:31:11;5.10;;;3.75;;
14907;SDS011;7545;52.092;7.006;2023-04-24T10:33:38;3.92;;;3.15;;
14907;SDS011;7545;52.092;7.006;2023-04-24T10:36:06;5.40;;;3.83;;
14907;SDS011;7545;52.092;7.006;2023-04-24T10:38:37;5.93;;;3.83;;
14907;SDS011;7545;52.092;7.006;2023-04-24T10:41:09;8.82;;;4.13;;
14907;SDS011;7545;52.092;7.006;2023-04-24T10:43:41;6.87;;;3.80;;
14907;SDS011;7545;52.092;7.006;2023-04-24T10:46:08;3.97;;;3.20;;
14907;SDS011;7545;52.092;7.006;2023-04-24T10:48:35;5.90;;;3.35;;
14907;SDS011;7545;52.092;7.006;2023-04-24T10:51:10;9.15;;;3.95;;
14907;SDS011;7545;52.092;7.006;2023-04-24T10:53:37;3.45;;;2.55;;
14907;SDS011;7545;52.092;7.006;2023-04-24T10:56:07;4.88;;;3.63;;
14907;SDS011;7545;52.092;7.006;2023-04-24T10:58:38;6.15;;;3.28;;
14907;SDS011;7545;52.092;7.006;2023-04-24T11:04:00;5.75;;;2.92;;
14907;SDS011;7545;52.092;7.006;2023-04-24T11:06:28;7.20;;;3.50;;
14907;SDS011;7545;52.092;7.006;2023-04-24T11:09:02;6.30;;;3.33;;
14907;SDS011;7545;52.092;7.006;2023-04-24T11:11:32;3.53;;;1.60;;
14907;SDS011;7545;52.092;7.006;2023-04-24T11:16:35;2.47;;;1.83;;
14907;SDS011;7545;52.092;7.006;2023-04-24T11:19:07;3.05;;;1.55;;
14907;SDS011;7545;52.092;7.006;2023-04-24T11:21:41;3.53;;;2.03;;
14907;SDS011;7545;52.092;7.006;2023-04-24T11:26:48;3.10;;;1.67;;
14907;SDS011;7545;52.092;7.006;2023-04-24T11:29:15;3.00;;;1.77;;
14907;SDS011;7545;52.092;7.006;2023-04-24T11:31:44;5.72;;;2.03;;
14907;SDS011;7545;52.092;7.006;2023-04-24T11:34:15;7.13;;;2.47;;
14907;SDS011;7545;52.092;7.006;2023-04-24T11:36:46;5.75;;;2.55;;
14907;SDS011;7545;52.092;7.006;2023-04-24T11:39:13;4.38;;;2.05;;
14907;SDS011;7545;52.092;7.006;2023-04-24T11:41:39;5.47;;;1.77;;
14907;SDS011;7545;52.092;7.006;2023-04-24T11:44:06;5.20;;;2.33;;
14907;SDS011;7545;52.092;7.006;2023-04-24T11:46:33;5.40;;;3.20;;
14907;SDS011;7545;52.092;7.006;2023-04-24T11:48:59;4.93;;;2.30;;
14907;SDS011;7545;52.092;7.006;2023-04-24T11:51:26;5.20;;;2.60;;
14907;SDS011;7545;52.092;7.006;2023-04-24T11:53:55;7.50;;;2.38;;
14907;SDS011;7545;52.092;7.006;2023-04-24T11:56:24;7.82;;;2.55;;
14907;SDS011;7545;52.092;7.006;2023-04-24T11:58:53;4.45;;;2.35;;
14907;SDS011;7545;52.092;7.006;2023-04-24T12:01:19;8.68;;;2.55;;
14907;SDS011;7545;52.092;7.006;2023-04-24T12:03:49;4.78;;;2.80;;
14907;SDS011;7545;52.092;7.006;2023-04-24T12:06:18;7.18;;;2.17;;
14907;SDS011;7545;52.092;7.006;2023-04-24T12:08:47;7.93;;;2.50;;
14907;SDS011;7545;52.092;7.006;2023-04-24T12:11:14;3.42;;;2.33;;
14907;SDS011;7545;52.092;7.006;2023-04-24T12:13:42;3.72;;;2.25;;
14907;SDS011;7545;52.092;7.006;2023-04-24T12:16:08;3.10;;;1.75;;
14907;SDS011;7545;52.092;7.006;2023-04-24T12:18:34;6.40;;;2.20;;
14907;SDS011;7545;52.092;7.006;2023-04-24T12:21:18;3.05;;;2.00;;
14907;SDS011;7545;52.092;7.006;2023-04-24T12:23:45;2.75;;;1.67;;
14907;SDS011;7545;52.092;7.006;2023-04-24T12:26:20;4.32;;;1.73;;
14907;SDS011;7545;52.092;7.006;2023-04-24T12:28:48;11.38;;;2.55;;
14907;SDS011;7545;52.092;7.006;2023-04-24T12:31:15;9.15;;;2.28;;
14907;SDS011;7545;52.092;7.006;2023-04-24T12:33:41;7.72;;;1.90;;
14907;SDS011;7545;52.092;7.006;2023-04-24T12:36:09;9.18;;;3.85;;
14907;SDS011;7545;52.092;7.006;2023-04-24T12:38:38;3.25;;;1.83;;
14907;SDS011;7545;52.092;7.006;2023-04-24T12:41:10;5.22;;;2.30;;
14907;SDS011;7545;52.092;7.006;2023-04-24T12:43:52;5.22;;;1.75;;
14907;SDS011;7545;52.092;7.006;2023-04-24T12:46:19;4.97;;;2.20;;
14907;SDS011;7545;52.092;7.006;2023-04-24T12:48:45;6.25;;;2.47;;
14907;SDS011;7545;52.092;7.006;2023-04-24T12:51:10;6.30;;;2.53;;
14907;SDS011;7545;52.092;7.006;2023-04-24T12:53:36;3.55;;;1.80;;
14907;SDS011;7545;52.092;7.006;2023-04-24T12:56:02;5.05;;;1.70;;
14907;SDS011;7545;52.092;7.006;2023-04-24T12:58:27;8.95;;;2.13;;
14907;SDS011;7545;52.092;7.006;2023-04-24T13:00:53;5.80;;;1.60;;
14907;SDS011;7545;52.092;7.006;2023-04-24T13:03:19;3.15;;;1.60;;
14907;SDS011;7545;52.092;7.006;2023-04-24T13:05:45;5.43;;;1.35;;
14907;SDS011;7545;52.092;7.006;2023-04-24T13:08:10;3.08;;;1.17;;
14907;SDS011;7545;52.092;7.006;2023-04-24T13:10:37;2.80;;;1.42;;
14907;SDS011;7545;52.092;7.006;2023-04-24T13:13:04;2.53;;;1.38;;
14907;SDS011;7545;52.092;7.006;2023-04-24T13:15:30;4.70;;;1.73;;
14907;SDS011;7545;52.092;7.006;2023-04-24T13:17:55;6.57;;;1.67;;
14907;SDS011;7545;52.092;7.006;2023-04-24T13:20:21;4.70;;;1.52;;
14907;SDS011;7545;52.092;7.006;2023-04-24T13:22:46;5.43;;;1.30;;
14907;SDS011;7545;52.092;7.006;2023-04-24T13:25:12;5.80;;;1.23;;
14907;SDS011;7545;52.092;7.006;2023-04-24T13:27:38;2.13;;;1.10;;
14907;SDS011;7545;52.092;7.006;2023-04-24T13:30:04;1.60;;;0.95;;
14907;SDS011;7545;52.092;7.006;2023-04-24T13:32:31;1.35;;;1.17;;
14907;SDS011;7545;52.092;7.006;2023-04-24T13:34:58;2.05;;;0.90;;
14907;SDS011;7545;52.092;7.006;2023-04-24T13:37:23;3.10;;;1.27;;
14907;SDS011;7545;52.092;7.006;2023-04-24T13:39:49;2.45;;;1.00;;
14907;SDS011;7545;52.092;7.006;2023-04-24T13:42:15;2.58;;;1.10;;
14907;SDS011;7545;52.092;7.006;2023-04-24T13:44:41;1.02;;;0.93;;
14907;SDS011;7545;52.092;7.006;2023-04-24T13:47:07;3.95;;;0.93;;
14907;SDS011;7545;52.092;7.006;2023-04-24T13:49:32;2.25;;;0.70;;
14907;SDS011;7545;52.092;7.006;2023-04-24T13:51:58;2.10;;;0.80;;
14907;SDS011;7545;52.092;7.006;2023-04-24T13:54:23;4.72;;;1.02;;
14907;SDS011;7545;52.092;7.006;2023-04-24T13:56:51;3.65;;;1.02;;
14907;SDS011;7545;52.092;7.006;2023-04-24T13:59:17;1.23;;;1.13;;
14907;SDS011;7545;52.092;7.006;2023-04-24T14:01:43;1.45;;;1.10;;
14907;SDS011;7545;52.092;7.006;2023-04-24T14:04:10;0.95;;;0.82;;
14907;SDS011;7545;52.092;7.006;2023-04-24T14:06:35;3.92;;;1.00;;
14907;SDS011;7545;52.092;7.006;2023-04-24T14:09:01;1.98;;;1.08;;
14907;SDS011;7545;52.092;7.006;2023-04-24T14:11:27;1.45;;;0.90;;
14907;SDS011;7545;52.092;7.006;2023-04-24T14:13:53;2.35;;;0.95;;
14907;SDS011;7545;52.092;7.006;2023-04-24T14:16:21;1.95;;;0.82;;
14907;SDS011;7545;52.092;7.006;2023-04-24T14:18:47;2.40;;;0.98;;
14907;SDS011;7545;52.092;7.006;2023-04-24T14:21:12;1.85;;;1.00;;
14907;SDS011;7545;52.092;7.006;2023-04-24T14:23:38;2.33;;;1.30;;
14907;SDS011;7545;52.092;7.006;2023-04-24T14:26:03;3.90;;;1.20;;
14907;SDS011;7545;52.092;7.006;2023-04-24T14:28:29;2.33;;;1.75;;
14907;SDS011;7545;52.092;7.006;2023-04-24T14:30:55;1.92;;;1.23;;
14907;SDS011;7545;52.092;7.006;2023-04-24T14:33:20;5.10;;;1.00;;
14907;SDS011;7545;52.092;7.006;2023-04-24T14:35:46;3.13;;;1.27;;
14907;SDS011;7545;52.092;7.006;2023-04-24T14:38:12;1.48;;;1.20;;
14907;SDS011;7545;52.092;7.006;2023-04-24T14:40:38;1.50;;;1.10;;
14907;SDS011;7545;52.092;7.006;2023-04-24T14:43:04;2.90;;;0.85;;
14907;SDS011;7545;52.092;7.006;2023-04-24T14:45:30;2.20;;;0.85;;
14907;SDS011;7545;52.092;7.006;2023-04-24T14:47:56;3.78;;;1.27;;
14907;SDS011;7545;52.092;7.006;2023-04-24T14:50:22;2.40;;;0.85;;
14907;SDS011;7545;52.092;7.006;2023-04-24T14:52:48;2.45;;;1.10;;
14907;SDS011;7545;52.092;7.006;2023-04-24T14:55:13;5.32;;;1.48;;
14907;SDS011;7545;52.092;7.006;2023-04-24T14:57:39;2.88;;;1.33;;
14907;SDS011;7545;52.092;7.006;2023-04-24T15:00:05;4.22;;;1.10;;
14907;SDS011;7545;52.092;7.006;2023-04-24T15:02:33;8.07;;;1.60;;
14907;SDS011;7545;52.092;7.006;2023-04-24T15:05:01;1.80;;;1.10;;